Time;durP1;ratioP1;P1;durP2;ratioP2;P2;SDS_P1;SDS_P2;PMS_P1;PMS_P2;Temp;Humidity;BMP_temperature;BMP_pressure;BME280_temperature;BME280_humidity;BME280_pressure;Samples;Min_cycle;Max_cycle;Signal;HPM_P1;HPM_P2
2022/06/03 00:02:24;;;;;;;5.23;3.47;;;14.60;1.00;;;;;;5038612;28;20456;-82
2022/06/03 00:05:19;;;;;;;4.63;2.37;;;14.60;1.00;;;;;;4997498;28;20572;-83
2022/06/03 00:08:04;;;;;;;4.60;3.43;;;14.50;1.00;;;;;;5060738;23;20545;-77
2022/06/03 00:10:53;;;;;;;4.30;3.40;;;14.50;1.00;;;;;;4970661;28;20468;-78
2022/06/03 00:13:38;;;;;;;5.33;2.90;;;14.50;1.00;;;;;;4959860;28;20520;-78
2022/06/03 00:16:18;;;;;;;5.70;3.23;;;14.50;1.00;;;;;;4959209;29;20453;-78
2022/06/03 00:19:04;;;;;;;2.93;2.13;;;14.40;1.00;;;;;;4958753;28;20483;-78
2022/06/03 00:21:47;;;;;;;4.93;2.97;;;14.50;1.00;;;;;;4962980;28;20540;-78
2022/06/03 00:24:30;;;;;;;4.00;2.90;;;14.50;1.00;;;;;;4977561;28;20539;-77
2022/06/03 00:27:30;;;;;;;6.03;3.60;;;14.50;1.00;;;;;;4977163;28;20546;-79
2022/06/03 00:30:05;;;;;;;4.80;3.17;;;14.40;1.00;;;;;;4977016;28;20918;-81
2022/06/03 00:32:55;;;;;;;5.30;3.07;;;14.40;1.00;;;;;;4976150;28;20496;-79
2022/06/03 00:35:51;;;;;;;4.03;2.93;;;14.40;1.00;;;;;;4969722;28;20557;-78
2022/06/03 00:38:34;;;;;;;4.33;2.47;;;14.40;1.00;;;;;;4976735;28;20484;-78
2022/06/03 00:41:25;;;;;;;4.13;3.23;;;14.40;1.00;;;;;;4966396;28;20454;-78
2022/06/03 00:44:19;;;;;;;5.83;3.43;;;14.30;1.00;;;;;;4977680;28;20495;-78
2022/06/03 00:47:06;;;;;;;7.13;3.50;;;14.20;1.00;;;;;;4957840;28;20545;-78
2022/06/03 00:49:50;;;;;;;5.67;3.03;;;14.20;1.00;;;;;;4970526;28;20496;-78
2022/06/03 00:52:41;;;;;;;4.30;3.50;;;14.10;1.00;;;;;;4975854;28;20848;-78
2022/06/03 00:55:31;;;;;;;5.37;2.83;;;14.20;1.00;;;;;;4976854;28;20492;-78
2022/06/03 00:58:19;;;;;;;5.70;3.83;;;14.00;1.00;;;;;;4973864;28;20455;-78
2022/06/03 01:01:04;;;;;;;4.40;3.17;;;14.00;1.00;;;;;;4976288;28;20477;-78
2022/06/03 01:03:52;;;;;;;4.33;3.17;;;13.90;5.10;;;;;;4977699;28;20546;-79
2022/06/03 01:06:28;;;;;;;4.77;3.30;;;13.90;62.00;;;;;;4972651;28;20487;-78
2022/06/03 01:09:11;;;;;;;3.97;3.00;;;13.80;92.20;;;;;;4981152;28;20486;-79
2022/06/03 01:12:05;;;;;;;5.10;3.13;;;13.70;99.90;;;;;;4971262;28;20906;-79
2022/06/03 01:14:49;;;;;;;5.40;3.27;;;13.70;99.90;;;;;;4981122;28;21055;-78
2022/06/03 01:17:29;;;;;;;4.23;3.30;;;13.50;99.90;;;;;;4980895;28;20454;-78
2022/06/03 01:20:03;;;;;;;5.60;2.70;;;13.50;99.90;;;;;;4979872;28;20879;-78
2022/06/03 01:23:09;;;;;;;4.10;2.67;;;13.50;99.90;;;;;;4976820;28;20534;-76
2022/06/03 01:26:00;;;;;;;4.57;3.23;;;13.40;99.90;;;;;;4959910;28;20500;-77
2022/06/03 01:29:12;;;;;;;6.37;3.30;;;13.40;1.00;;;;;;4968122;28;20572;-78
2022/06/03 01:31:57;;;;;;;5.50;3.37;;;13.40;99.90;;;;;;4978870;28;20915;-78
2022/06/03 01:34:38;;;;;;;5.50;3.33;;;13.40;1.00;;;;;;4981254;28;20464;-78
2022/06/03 01:37:16;;;;;;;5.37;2.93;;;13.40;99.90;;;;;;4987048;28;20537;-78
2022/06/03 01:39:58;;;;;;;4.40;3.40;;;13.40;1.00;;;;;;4983796;28;20933;-77
2022/06/03 01:42:51;;;;;;;4.70;3.30;;;13.30;1.00;;;;;;4974404;28;20465;-77
2022/06/03 01:45:44;;;;;;;4.57;3.40;;;13.30;1.00;;;;;;4982138;28;20475;-78
2022/06/03 01:48:25;;;;;;;10.17;4.20;;;13.30;99.90;;;;;;4983612;28;20485;-77
2022/06/03 01:51:20;;;;;;;4.87;3.07;;;13.30;1.00;;;;;;4978862;28;20641;-78
2022/06/03 01:54:33;;;;;;;4.70;3.60;;;13.20;99.90;;;;;;4979036;28;20586;-78
2022/06/03 01:57:25;;;;;;;4.60;3.87;;;13.20;99.90;;;;;;4965393;28;20510;-78
2022/06/03 02:00:25;;;;;;;6.43;3.10;;;13.10;99.90;;;;;;4959850;28;20479;-78
2022/06/03 02:03:36;;;;;;;3.77;2.70;;;13.10;99.90;;;;;;4960028;29;20519;-78
2022/06/03 02:06:46;;;;;;;5.20;3.00;;;13.00;99.90;;;;;;4959374;28;20473;-78
2022/06/03 02:10:02;;;;;;;4.97;3.20;;;13.00;99.90;;;;;;4959209;29;20486;-78
2022/06/03 02:12:47;;;;;;;3.80;3.03;;;12.90;99.90;;;;;;4960986;28;20498;-78
2022/06/03 02:15:43;;;;;;;3.60;2.87;;;12.80;99.90;;;;;;4961521;29;20482;-78
2022/06/03 02:18:52;;;;;;;6.93;2.80;;;12.80;99.90;;;;;;4960757;29;21024;-78
2022/06/03 02:22:02;;;;;;;4.70;3.33;;;12.70;99.90;;;;;;4933584;29;20475;-77
2022/06/03 02:24:56;;;;;;;4.57;3.33;;;12.70;99.90;;;;;;4936713;29;20534;-78
2022/06/03 02:27:44;;;;;;;3.60;2.70;;;12.60;99.90;;;;;;4976979;28;20469;-78
2022/06/03 02:30:51;;;;;;;4.53;2.83;;;12.50;99.90;;;;;;4978731;28;20546;-78
2022/06/03 02:33:57;;;;;;;4.37;3.00;;;12.50;99.90;;;;;;4977464;28;20960;-77
2022/06/03 02:36:50;;;;;;;5.73;3.23;;;12.40;99.90;;;;;;4977281;28;20548;-78
2022/06/03 02:39:34;;;;;;;4.70;3.47;;;12.40;99.90;;;;;;4963510;28;20552;-78
2022/06/03 02:42:37;;;;;;;4.70;3.00;;;12.40;99.90;;;;;;4977043;28;20547;-78
2022/06/03 02:45:25;;;;;;;5.50;3.70;;;12.40;99.90;;;;;;4961002;28;20905;-78
2022/06/03 02:48:20;;;;;;;5.43;3.43;;;12.30;99.90;;;;;;4976624;28;20457;-78
2022/06/03 02:51:09;;;;;;;5.30;3.80;;;12.30;99.90;;;;;;4978156;28;20469;-80
2022/06/03 02:54:25;;;;;;;5.70;3.57;;;12.30;99.90;;;;;;4978075;28;20506;-80
2022/06/03 02:57:21;;;;;;;4.57;3.13;;;12.30;99.90;;;;;;4977651;28;20507;-80
2022/06/03 03:00:16;;;;;;;6.67;3.43;;;12.20;99.90;;;;;;4971050;28;20517;-80
2022/06/03 03:03:07;;;;;;;4.03;2.70;;;12.20;99.90;;;;;;4970565;28;20858;-80
2022/06/03 03:05:54;;;;;;;4.40;3.17;;;12.10;99.90;;;;;;4980550;28;20485;-81
2022/06/03 03:08:58;;;;;;;6.93;3.60;;;12.10;99.90;;;;;;4973187;28;20511;-80
2022/06/03 03:12:01;;;;;;;5.53;3.47;;;12.10;99.90;;;;;;4975571;28;20531;-80
2022/06/03 03:14:57;;;;;;;5.33;3.00;;;12.00;99.90;;;;;;4980520;28;20554;-80
2022/06/03 03:17:54;;;;;;;4.80;3.03;;;12.00;99.90;;;;;;4977332;28;20456;-80
2022/06/03 03:20:55;;;;;;;4.40;3.50;;;12.00;99.90;;;;;;4976935;28;20473;-80
2022/06/03 03:24:21;;;;;;;4.03;3.13;;;11.90;99.90;;;;;;4971999;28;20456;-81
2022/06/03 03:26:56;;;;;;;5.10;3.90;;;11.90;99.90;;;;;;4952523;28;20519;-80
2022/06/03 03:29:44;;;;;;;4.77;3.80;;;11.90;99.90;;;;;;4967430;28;20529;-80
2022/06/03 03:32:29;;;;;;;6.27;3.67;;;11.90;99.90;;;;;;4976345;28;20995;-79
2022/06/03 03:35:27;;;;;;;4.40;3.70;;;11.80;99.90;;;;;;4965060;28;20563;-79
2022/06/03 03:38:25;;;;;;;5.90;3.87;;;11.80;99.90;;;;;;4977587;28;20837;-79
2022/06/03 03:41:24;;;;;;;5.00;4.17;;;11.80;99.90;;;;;;4973623;28;20498;-79
2022/06/03 03:44:32;;;;;;;4.90;3.50;;;11.80;99.90;;;;;;4958004;28;20491;-79
2022/06/03 03:47:35;;;;;;;4.63;3.50;;;11.90;99.90;;;;;;4979842;28;20459;-78
2022/06/03 03:50:23;;;;;;;6.23;3.93;;;11.80;99.90;;;;;;4980458;28;20519;-79
2022/06/03 03:53:24;;;;;;;5.80;4.40;;;11.80;99.90;;;;;;4981964;28;20555;-79
2022/06/03 03:56:29;;;;;;;6.13;4.40;;;11.80;99.90;;;;;;4983427;28;20460;-78
2022/06/03 03:59:45;;;;;;;6.20;3.70;;;11.90;99.90;;;;;;4984334;28;20511;-79
2022/06/03 04:02:47;;;;;;;3.40;2.50;;;11.90;99.90;;;;;;4985491;28;20545;-80
2022/06/03 04:05:51;;;;;;;4.93;2.93;;;12.50;99.90;;;;;;4975689;28;20461;-80
2022/06/03 04:08:36;;;;;;;5.73;3.40;;;13.10;99.90;;;;;;4976397;28;20474;-79
2022/06/03 04:11:45;;;;;;;5.27;3.57;;;13.40;99.90;;;;;;4976376;28;20440;-79
2022/06/03 04:14:53;;;;;;;6.40;3.70;;;13.50;99.90;;;;;;4977021;28;20560;-77
2022/06/03 04:17:59;;;;;;;5.97;4.00;;;13.40;99.90;;;;;;4977106;28;20462;-80
2022/06/03 04:20:58;;;;;;;6.87;4.27;;;13.30;99.90;;;;;;4976033;28;20834;-77
2022/06/03 04:24:08;;;;;;;5.07;3.83;;;13.20;99.90;;;;;;4976662;28;20462;-78
2022/06/03 04:27:29;;;;;;;6.90;3.80;;;13.10;99.90;;;;;;4914605;28;20888;-81
2022/06/03 04:30:43;;;;;;;5.30;4.17;;;13.00;99.90;;;;;;4945812;29;20572;-79
2022/06/03 04:33:46;;;;;;;5.53;4.60;;;13.00;99.90;;;;;;4970279;28;20569;-78
2022/06/03 04:36:48;;;;;;;7.17;5.07;;;12.90;99.90;;;;;;4977689;28;20457;-80
2022/06/03 04:39:53;;;;;;;5.10;4.40;;;12.90;99.90;;;;;;4973591;28;20502;-76
2022/06/03 04:43:09;;;;;;;5.83;4.63;;;12.90;99.90;;;;;;4966386;28;20465;-75
2022/06/03 04:46:10;;;;;;;5.13;4.27;;;12.90;99.90;;;;;;4972676;28;20448;-77
2022/06/03 04:49:18;;;;;;;10.83;4.97;;;13.00;99.90;;;;;;4975201;28;20575;-77
2022/06/03 04:52:33;;;;;;;6.87;4.03;;;13.00;99.90;;;;;;4980326;28;20512;-77
2022/06/03 04:55:34;;;;;;;6.40;4.30;;;13.10;99.90;;;;;;4979557;28;20908;-76
2022/06/03 04:58:38;;;;;;;4.70;4.03;;;13.10;99.90;;;;;;4932665;28;20554;-79
2022/06/03 05:01:50;;;;;;;7.13;3.97;;;13.20;99.90;;;;;;4960803;28;20488;-81
2022/06/03 05:05:01;;;;;;;6.30;4.13;;;13.20;99.90;;;;;;4939499;28;20552;-79
2022/06/03 05:08:00;;;;;;;7.63;3.70;;;13.30;99.90;;;;;;4977510;28;20542;-79
2022/06/03 05:11:13;;;;;;;5.53;3.70;;;13.40;99.90;;;;;;4979292;28;20538;-79
2022/06/03 05:14:25;;;;;;;6.03;3.57;;;13.40;99.90;;;;;;4983748;28;20486;-78
2022/06/03 05:17:25;;;;;;;6.20;3.30;;;13.50;99.90;;;;;;4976775;28;20550;-80
2022/06/03 05:20:28;;;;;;;4.20;3.23;;;13.50;99.90;;;;;;4963901;28;20572;-80
2022/06/03 05:23:19;;;;;;;5.50;3.43;;;13.60;99.90;;;;;;4964365;28;20530;-77
2022/06/03 05:26:33;;;;;;;5.50;3.60;;;13.70;99.90;;;;;;4976936;28;21028;-81
2022/06/03 05:29:48;;;;;;;3.80;3.30;;;13.70;99.90;;;;;;4942833;29;20572;-78
2022/06/03 05:32:49;;;;;;;8.97;3.63;;;13.80;99.90;;;;;;4957318;28;20546;-79
2022/06/03 05:35:43;;;;;;;5.83;3.20;;;13.90;99.90;;;;;;4958705;28;20546;-78
2022/06/03 05:38:41;;;;;;;14.57;4.17;;;14.00;99.90;;;;;;4975966;28;20506;-79
2022/06/03 05:44:24;;;;;;;4.97;3.90;;;14.10;99.90;;;;;;4976446;28;20430;-78
2022/06/03 05:47:01;;;;;;;5.30;3.43;;;14.20;99.90;;;;;;4965322;28;20479;-81
2022/06/03 05:49:38;;;;;;;5.03;3.63;;;14.20;99.90;;;;;;4967528;28;20560;-81
2022/06/03 05:52:29;;;;;;;5.80;5.03;;;14.40;99.90;;;;;;4973309;28;20514;-80
2022/06/03 05:55:09;;;;;;;5.57;4.13;;;14.40;99.90;;;;;;4963912;28;20487;-79
2022/06/03 05:58:05;;;;;;;5.83;4.00;;;14.60;99.90;;;;;;4966841;28;20532;-80
2022/06/03 06:00:49;;;;;;;8.00;4.47;;;14.60;99.90;;;;;;4965309;28;20919;-79
2022/06/03 06:03:34;;;;;;;6.23;3.80;;;14.70;99.90;;;;;;4968902;28;20465;-80
2022/06/03 06:06:14;;;;;;;8.17;4.50;;;14.80;99.90;;;;;;4966611;28;20461;-79
2022/06/03 06:08:56;;;;;;;6.67;4.40;;;14.90;99.90;;;;;;4966518;28;20513;-79
2022/06/03 06:11:31;;;;;;;6.40;3.60;;;14.90;99.90;;;;;;4962453;28;20494;-78
2022/06/03 06:14:26;;;;;;;4.00;3.37;;;15.00;99.90;;;;;;4966347;28;21015;-79
2022/06/03 06:16:54;;;;;;;4.13;3.43;;;15.10;99.90;;;;;;4965546;28;20450;-78
2022/06/03 06:19:39;;;;;;;4.50;3.23;;;15.20;99.90;;;;;;4964002;28;20482;-78
2022/06/03 06:22:17;;;;;;;3.40;2.77;;;15.30;99.90;;;;;;4963445;28;20537;-79
2022/06/03 06:24:56;;;;;;;5.90;3.23;;;15.40;99.90;;;;;;4961485;28;20462;-81
2022/06/03 06:28:05;;;;;;;3.67;2.57;;;15.50;99.90;;;;;;4974015;28;20477;-78
2022/06/03 06:31:07;;;;;;;3.10;2.43;;;15.60;99.90;;;;;;4967656;28;20459;-80
2022/06/03 06:34:15;;;;;;;6.47;2.57;;;15.70;99.90;;;;;;4965458;28;20523;-79
2022/06/03 06:37:15;;;;;;;4.27;2.70;;;15.80;99.90;;;;;;4963461;28;20455;-78
2022/06/03 06:39:55;;;;;;;4.00;2.43;;;15.90;99.90;;;;;;4972346;28;20850;-78
2022/06/03 06:42:38;;;;;;;4.40;2.57;;;16.00;99.90;;;;;;4973774;28;20514;-78
2022/06/03 06:45:20;;;;;;;4.10;2.30;;;16.10;99.90;;;;;;4983640;28;20487;-79
2022/06/03 06:47:55;;;;;;;3.77;2.10;;;16.20;99.90;;;;;;4976972;28;20456;-77
2022/06/03 06:50:25;;;;;;;3.03;2.03;;;16.30;99.90;;;;;;4973439;28;20493;-79
2022/06/03 06:53:01;;;;;;;4.67;2.50;;;16.40;99.90;;;;;;4977710;28;20443;-76
2022/06/03 06:55:43;;;;;;;3.50;2.47;;;16.50;99.90;;;;;;4971395;28;20848;-81
2022/06/03 06:58:29;;;;;;;4.40;2.33;;;16.70;99.90;;;;;;4975863;28;20518;-79
2022/06/03 07:01:04;;;;;;;5.70;2.80;;;16.80;99.90;;;;;;4973740;28;20455;-81
2022/06/03 07:03:51;;;;;;;4.57;2.90;;;16.90;99.90;;;;;;4973929;28;20885;-77
2022/06/03 07:06:27;;;;;;;6.50;3.00;;;17.00;99.90;;;;;;4975443;28;20448;-77
2022/06/03 07:09:06;;;;;;;4.23;2.37;;;17.10;99.90;;;;;;4979425;28;20505;-77
2022/06/03 07:11:47;;;;;;;6.23;2.40;;;17.10;99.90;;;;;;4980005;28;20450;-79
2022/06/03 07:14:20;;;;;;;4.10;2.63;;;17.30;99.90;;;;;;4975687;28;20511;-79
2022/06/03 07:19:53;;;;;;;3.87;2.27;;;17.60;99.90;;;;;;4957032;29;20469;-78
2022/06/03 07:22:31;;;;;;;5.63;2.30;;;17.70;99.90;;;;;;4958870;28;20450;-81
2022/06/03 07:25:08;;;;;;;3.00;2.07;;;17.80;99.90;;;;;;4977456;28;20459;-77
2022/06/03 07:27:47;;;;;;;3.00;1.80;;;18.00;99.90;;;;;;4980159;28;20463;-77
2022/06/03 07:30:20;;;;;;;3.13;2.00;;;18.20;99.90;;;;;;4975872;28;20527;-78
2022/06/03 07:32:51;;;;;;;5.20;3.10;;;18.30;99.90;;;;;;4975683;28;20551;-77
2022/06/03 07:35:23;;;;;;;4.33;1.83;;;18.40;99.90;;;;;;4973852;28;20481;-78
2022/06/03 07:38:09;;;;;;;3.30;1.67;;;18.60;99.90;;;;;;4966027;28;21008;-77
2022/06/03 07:40:40;;;;;;;2.60;1.50;;;18.70;99.90;;;;;;4962274;28;20466;-77
2022/06/03 07:43:15;;;;;;;3.23;2.20;;;18.80;99.90;;;;;;4974316;28;20460;-76
2022/06/03 07:45:47;;;;;;;3.90;1.50;;;18.90;99.90;;;;;;4973776;28;20482;-76
2022/06/03 07:48:18;;;;;;;3.00;1.50;;;19.00;99.90;;;;;;4973181;28;20914;-76
2022/06/03 07:50:56;;;;;;;3.53;2.00;;;19.10;99.90;;;;;;4972493;28;21103;-79
2022/06/03 07:53:32;;;;;;;2.83;1.53;;;19.30;99.90;;;;;;4973868;28;20552;-77
2022/06/03 07:56:00;;;;;;;3.10;1.43;;;19.40;99.90;;;;;;4972131;28;20516;-76
2022/06/03 07:58:33;;;;;;;2.87;1.47;;;19.50;99.90;;;;;;4972147;28;20466;-78
2022/06/03 08:01:01;;;;;;;4.63;1.40;;;19.60;99.90;;;;;;4973993;28;20551;-77
2022/06/03 08:03:36;;;;;;;2.80;1.87;;;19.80;99.90;;;;;;4975998;28;20454;-77
2022/06/03 08:06:06;;;;;;;2.90;1.30;;;20.00;99.90;;;;;;4977174;28;20450;-77
2022/06/03 08:11:26;;;;;;;6.80;1.60;;;20.20;99.90;;;;;;4976931;28;20429;-76
2022/06/03 08:13:57;;;;;;;2.50;1.37;;;20.40;99.90;;;;;;4973629;28;20522;-81
2022/06/03 08:16:29;;;;;;;4.63;1.83;;;20.60;99.90;;;;;;4973874;28;20542;-78
2022/06/03 08:18:58;;;;;;;2.87;1.53;;;20.70;99.90;;;;;;4971563;28;20467;-76
2022/06/03 08:21:29;;;;;;;2.80;1.70;;;20.80;99.90;;;;;;4965584;28;20801;-78
2022/06/03 08:23:57;;;;;;;4.50;1.50;;;21.00;99.90;;;;;;4969526;28;20499;-76
2022/06/03 08:26:27;;;;;;;4.20;1.70;;;21.10;99.90;;;;;;4963541;28;20456;-76
2022/06/03 08:29:06;;;;;;;4.07;1.60;;;21.40;99.90;;;;;;4967694;28;20514;-76
2022/06/03 08:31:34;;;;;;;2.70;1.60;;;21.60;99.90;;;;;;4966731;28;20464;-81
2022/06/03 08:34:03;;;;;;;4.23;1.57;;;21.80;99.90;;;;;;4964727;28;20483;-76
2022/06/03 08:36:36;;;;;;;2.90;1.67;;;21.90;99.90;;;;;;4964555;28;20478;-76
2022/06/03 08:39:08;;;;;;;2.53;1.30;;;22.10;99.90;;;;;;4965613;28;21044;-76
2022/06/03 08:41:49;;;;;;;2.60;1.50;;;22.30;99.90;;;;;;4964813;29;20449;-77
2022/06/03 08:44:39;;;;;;;4.63;2.00;;;22.50;99.90;;;;;;4968681;28;20459;-76
2022/06/03 08:47:19;;;;;;;2.67;1.47;;;22.80;99.90;;;;;;4967593;28;20467;-76
2022/06/03 08:49:56;;;;;;;2.40;1.30;;;23.20;99.90;;;;;;4977207;28;20501;-76
2022/06/03 08:52:30;;;;;;;3.37;1.37;;;23.60;99.90;;;;;;4980079;28;20463;-76
2022/06/03 08:55:02;;;;;;;3.57;1.87;;;24.00;99.90;;;;;;4972213;28;22509;-79
2022/06/03 08:57:37;;;;;;;2.80;1.30;;;24.40;99.90;;;;;;4970302;28;20467;-76
2022/06/03 09:00:10;;;;;;;4.37;1.50;;;24.60;99.90;;;;;;4962842;28;20559;-78
2022/06/03 09:02:46;;;;;;;2.90;1.50;;;24.90;99.90;;;;;;4968995;28;20547;-79
2022/06/03 09:05:21;;;;;;;3.40;1.70;;;25.10;99.90;;;;;;4974623;28;20529;-77
2022/06/03 09:07:52;;;;;;;3.67;1.80;;;25.20;99.90;;;;;;4973676;28;20538;-76
2022/06/03 09:10:26;;;;;;;3.87;1.80;;;25.10;99.90;;;;;;4973451;28;20452;-76
2022/06/03 09:13:00;;;;;;;2.80;1.80;;;25.10;99.90;;;;;;4975089;28;21013;-80
2022/06/03 09:15:35;;;;;;;2.93;1.77;;;25.00;99.90;;;;;;4973830;28;20485;-76
2022/06/03 09:18:13;;;;;;;3.30;1.73;;;25.00;99.90;;;;;;4958751;28;20470;-75
2022/06/03 09:20:46;;;;;;;6.80;1.70;;;25.00;99.90;;;;;;4979081;28;20966;-76
2022/06/03 09:23:17;;;;;;;2.67;1.30;;;25.10;99.90;;;;;;4976877;28;20448;-80
2022/06/03 09:25:48;;;;;;;9.90;2.00;;;25.00;99.90;;;;;;4973453;28;20452;-78
2022/06/03 09:28:18;;;;;;;3.10;1.70;;;25.10;99.90;;;;;;4973266;28;20490;-80
2022/06/03 09:30:49;;;;;;;3.67;1.57;;;25.20;99.90;;;;;;4973384;28;20566;-76
2022/06/03 09:33:17;;;;;;;3.80;1.63;;;25.20;99.90;;;;;;4972916;28;20513;-76
2022/06/03 09:35:47;;;;;;;4.87;3.53;;;25.50;99.90;;;;;;4974805;28;20481;-79
2022/06/03 09:38:16;;;;;;;4.60;2.37;;;25.30;99.90;;;;;;4975116;28;21091;-80
2022/06/03 09:40:47;;;;;;;3.33;2.37;;;25.30;99.90;;;;;;4973999;28;20463;-77
2022/06/03 09:43:21;;;;;;;3.43;1.90;;;25.50;99.90;;;;;;4975537;28;20992;-77
2022/06/03 09:45:54;;;;;;;3.33;1.60;;;25.60;99.90;;;;;;4980417;28;20444;-79
2022/06/03 09:48:30;;;;;;;3.23;1.93;;;25.80;99.90;;;;;;4982460;28;20555;-76
2022/06/03 09:51:04;;;;;;;3.83;1.80;;;25.90;99.90;;;;;;4957554;28;20503;-78
2022/06/03 09:53:35;;;;;;;2.50;1.50;;;25.90;99.90;;;;;;4959353;28;20487;-78
2022/06/03 09:56:07;;;;;;;4.13;1.43;;;26.40;99.90;;;;;;4957267;29;20550;-81
2022/06/03 09:58:35;;;;;;;2.13;1.00;;;26.60;99.90;;;;;;4985644;28;20486;-79
2022/06/03 10:01:09;;;;;;;2.60;1.30;;;27.00;99.90;;;;;;4979235;28;20551;-79
2022/06/03 10:03:36;;;;;;;2.73;1.40;;;27.10;99.90;;;;;;4978398;28;20463;-79
2022/06/03 10:06:05;;;;;;;3.13;1.40;;;27.20;99.90;;;;;;4980044;28;20460;-80
2022/06/03 10:12:48;;;;;;;2.10;1.33;;;27.30;99.90;;;;;;4976729;28;20566;-80
2022/06/03 10:14:14;;;;;;;3.30;1.33;;;27.80;99.90;;;;;;4962426;28;20443;-80
2022/06/03 10:16:43;;;;;;;2.83;1.20;;;28.10;99.90;;;;;;4976382;28;20479;-81
2022/06/03 10:19:10;;;;;;;2.97;1.43;;;28.20;99.90;;;;;;4975018;28;20507;-81
2022/06/03 10:21:37;;;;;;;2.37;1.37;;;28.30;99.90;;;;;;4976410;28;20486;-78
2022/06/03 10:24:06;;;;;;;2.17;1.10;;;28.80;99.90;;;;;;4974607;28;20516;-78
2022/06/03 10:26:38;;;;;;;3.00;1.20;;;29.20;99.90;;;;;;4963107;28;20464;-79
2022/06/03 10:29:12;;;;;;;3.60;1.27;;;29.40;99.90;;;;;;4970398;28;20522;-77
2022/06/03 10:31:38;;;;;;;2.00;1.10;;;29.80;99.90;;;;;;4972836;28;20455;-77
2022/06/03 10:34:15;;;;;;;2.57;1.33;;;30.00;99.90;;;;;;4972102;28;20470;-77
2022/06/03 10:36:45;;;;;;;2.00;1.03;;;30.10;99.90;;;;;;4974427;28;20526;-77
2022/06/03 10:39:16;;;;;;;3.00;1.30;;;30.10;99.90;;;;;;4974039;28;20550;-79
2022/06/03 10:41:46;;;;;;;2.73;1.40;;;30.20;99.90;;;;;;4973850;28;20812;-76
2022/06/03 10:44:15;;;;;;;2.47;1.33;;;30.40;96.80;;;;;;4971743;28;20980;-76
2022/06/03 10:46:57;;;;;;;2.37;1.20;;;30.30;97.60;;;;;;4972835;28;20550;-76
2022/06/03 10:49:27;;;;;;;2.90;1.50;;;30.20;96.10;;;;;;4976419;28;20555;-76
2022/06/03 11:02:59;;;;;;;2.23;1.10;;;29.40;98.90;;;;;;4976080;28;20447;-76
2022/06/03 11:05:29;;;;;;;3.10;1.33;;;29.90;99.90;;;;;;4974989;28;20507;-77
2022/06/03 11:08:02;;;;;;;2.30;1.33;;;30.50;98.50;;;;;;4958997;28;20514;-78
2022/06/03 11:10:32;;;;;;;2.13;1.07;;;30.40;97.60;;;;;;4988840;28;20462;-78
2022/06/03 11:13:00;;;;;;;3.23;1.40;;;30.30;92.50;;;;;;4972657;28;20483;-78
2022/06/03 11:15:33;;;;;;;2.80;1.00;;;30.80;95.20;;;;;;4969957;28;20494;-77
2022/06/03 11:18:13;;;;;;;2.43;1.00;;;30.60;90.50;;;;;;4976894;28;20850;-79
2022/06/03 11:23:17;;;;;;;2.30;1.13;;;30.00;93.20;;;;;;5755911;22;20880;-83
2022/06/03 11:25:47;;;;;;;2.67;1.20;;;30.60;97.70;;;;;;5012880;28;20556;-81
2022/06/03 11:28:18;;;;;;;2.00;1.00;;;30.80;94.70;;;;;;5006173;28;20488;-81
2022/06/03 11:30:49;;;;;;;2.53;1.10;;;30.40;89.40;;;;;;5020373;28;20532;-81
2022/06/03 11:33:23;;;;;;;2.40;1.30;;;30.20;92.00;;;;;;5016882;28;20471;-82
2022/06/03 11:35:53;;;;;;;3.60;1.10;;;30.10;94.00;;;;;;5015829;28;20985;-80
2022/06/03 11:38:28;;;;;;;2.27;1.23;;;30.30;93.30;;;;;;5023395;28;20493;-81
2022/06/03 11:41:01;;;;;;;3.47;1.10;;;30.30;91.10;;;;;;5021787;28;20449;-81
2022/06/03 11:43:35;;;;;;;2.53;1.10;;;29.80;91.80;;;;;;5021027;28;20485;-80
2022/06/03 11:46:05;;;;;;;2.90;1.40;;;30.00;92.30;;;;;;5019126;28;20942;-80
2022/06/03 11:48:35;;;;;;;3.17;1.30;;;30.30;95.50;;;;;;5017085;28;20438;-81
2022/06/03 11:51:02;;;;;;;2.70;1.13;;;30.80;91.10;;;;;;5012153;28;20945;-82
2022/06/03 11:53:34;;;;;;;2.20;1.50;;;31.50;91.30;;;;;;5015865;28;20482;-79
2022/06/03 11:56:03;;;;;;;1.90;0.97;;;31.30;85.60;;;;;;5018395;28;20469;-81
2022/06/03 11:58:43;;;;;;;2.63;1.07;;;30.80;83.10;;;;;;5019923;28;20477;-81
2022/06/03 12:01:14;;;;;;;2.00;1.03;;;30.80;90.90;;;;;;5023965;28;20441;-81
2022/06/03 12:03:51;;;;;;;1.93;1.20;;;30.60;90.00;;;;;;5026241;28;20500;-82
2022/06/03 12:06:23;;;;;;;4.63;1.10;;;30.70;91.60;;;;;;5020505;28;20453;-81
2022/06/03 12:08:57;;;;;;;2.47;1.10;;;31.20;92.40;;;;;;5025999;28;20506;-80
2022/06/03 12:14:29;;;;;;;2.30;1.33;;;31.90;92.20;;;;;;5019466;28;20814;-82
2022/06/03 12:16:59;;;;;;;2.20;1.07;;;32.40;87.70;;;;;;5021926;28;20481;-84
2022/06/03 12:19:41;;;;;;;3.07;1.50;;;32.80;86.30;;;;;;5026554;28;20449;-80
2022/06/03 12:22:41;;;;;;;2.40;1.20;;;33.00;89.10;;;;;;5025309;28;20449;-81
2022/06/03 12:25:37;;;;;;;2.30;1.00;;;33.60;88.80;;;;;;5012362;28;20450;-78
2022/06/03 12:28:06;;;;;;;2.93;1.27;;;34.20;90.40;;;;;;5016750;28;20957;-81
2022/06/03 12:30:42;;;;;;;2.53;1.13;;;34.40;78.00;;;;;;5012069;28;20541;-82
2022/06/03 12:33:21;;;;;;;2.00;1.10;;;34.50;80.00;;;;;;5018493;28;20563;-80
2022/06/03 12:36:07;;;;;;;2.00;1.20;;;34.50;99.90;;;;;;5020110;28;20543;-82
2022/06/03 12:38:44;;;;;;;1.97;1.10;;;34.10;99.90;;;;;;5020897;28;20434;-81
2022/06/03 12:41:54;;;;;;;3.63;1.20;;;34.00;99.90;;;;;;5022989;28;20449;-80
2022/06/03 12:44:47;;;;;;;2.00;1.00;;;34.00;99.90;;;;;;4992382;28;20474;-82
2022/06/03 12:47:41;;;;;;;2.27;1.27;;;34.10;99.90;;;;;;4994365;28;20450;-82
2022/06/03 12:50:39;;;;;;;3.10;1.10;;;33.90;99.90;;;;;;5023528;28;20437;-81
2022/06/03 12:53:34;;;;;;;2.33;1.30;;;34.20;99.90;;;;;;4956404;28;20469;-79
2022/06/03 12:56:03;;;;;;;2.43;1.00;;;34.70;99.90;;;;;;5018579;28;20628;-80
2022/06/03 12:58:53;;;;;;;2.33;1.27;;;35.10;99.90;;;;;;5023691;28;20661;-80
2022/06/03 13:01:43;;;;;;;1.93;0.90;;;35.60;99.90;;;;;;5024442;28;20807;-81
2022/06/03 13:04:48;;;;;;;2.17;1.00;;;36.20;99.90;;;;;;4991896;28;20513;-80
2022/06/03 13:07:32;;;;;;;2.97;1.50;;;36.40;99.90;;;;;;5021165;28;20481;-82
2022/06/03 13:10:24;;;;;;;2.33;1.00;;;36.70;99.90;;;;;;5022993;28;20453;-80
2022/06/03 13:12:52;;;;;;;2.57;1.47;;;36.80;99.90;;;;;;5024353;28;20521;-80
2022/06/03 13:15:47;;;;;;;3.67;1.47;;;36.10;99.90;;;;;;5026542;28;20482;-82
2022/06/03 13:18:32;;;;;;;3.33;1.70;;;35.10;99.90;;;;;;5010819;28;20629;-79
2022/06/03 13:21:17;;;;;;;3.67;1.77;;;34.50;99.90;;;;;;5024807;28;20445;-80
2022/06/03 13:24:15;;;;;;;2.10;1.10;;;34.10;99.90;;;;;;5039258;28;20476;-80
2022/06/03 13:27:27;;;;;;;3.87;1.20;;;34.40;99.90;;;;;;5022404;28;20480;-79
2022/06/03 13:30:14;;;;;;;3.57;1.47;;;35.40;99.90;;;;;;5023557;28;20449;-79
2022/06/03 13:33:01;;;;;;;2.73;1.27;;;36.70;99.90;;;;;;5017336;28;20445;-83
2022/06/03 13:35:31;;;;;;;2.40;1.40;;;37.60;99.90;;;;;;5021988;28;20560;-80
2022/06/03 13:38:18;;;;;;;3.70;1.30;;;38.50;99.90;;;;;;5024514;28;20478;-82
2022/06/03 13:43:26;;;;;;;4.00;1.40;;;39.10;99.90;;;;;;5020415;28;20920;-82
2022/06/03 13:46:10;;;;;;;2.83;1.40;;;39.40;99.90;;;;;;5024648;28;20481;-79
2022/06/03 13:48:57;;;;;;;2.57;1.20;;;39.10;99.90;;;;;;5027615;28;20496;-82
2022/06/03 13:51:51;;;;;;;2.60;1.00;;;39.10;99.90;;;;;;5023563;28;20449;-83
2022/06/03 13:54:22;;;;;;;2.93;1.00;;;39.10;99.90;;;;;;5018765;28;20468;-80
2022/06/03 13:56:56;;;;;;;2.87;1.10;;;38.60;99.90;;;;;;5014792;28;20562;-83
2022/06/03 13:59:26;;;;;;;2.17;1.13;;;37.50;99.90;;;;;;5022648;28;20477;-81
2022/06/03 14:01:55;;;;;;;2.60;1.20;;;36.40;99.90;;;;;;5023152;28;20450;-79
2022/06/03 14:04:28;;;;;;;2.80;1.10;;;35.20;99.90;;;;;;5020757;28;20474;-79
2022/06/03 14:07:01;;;;;;;7.63;1.57;;;34.10;99.90;;;;;;5021645;28;20450;-77
2022/06/03 14:09:32;;;;;;;2.33;1.20;;;33.20;99.90;;;;;;5022408;28;20454;-77
2022/06/03 14:12:21;;;;;;;3.07;1.20;;;32.30;99.90;;;;;;5023989;28;20481;-78
2022/06/03 14:14:58;;;;;;;2.83;1.40;;;31.70;99.90;;;;;;5022444;28;20545;-77
2022/06/03 14:17:32;;;;;;;2.10;1.10;;;31.10;99.90;;;;;;5025254;28;20569;-78
2022/06/03 14:20:07;;;;;;;2.30;1.20;;;30.80;99.90;;;;;;5023106;28;20514;-79
2022/06/03 14:22:40;;;;;;;2.20;1.20;;;30.60;99.90;;;;;;5020971;28;20473;-78
2022/06/03 14:25:17;;;;;;;2.10;1.20;;;30.50;99.90;;;;;;5023841;28;20981;-79
2022/06/03 14:27:59;;;;;;;2.10;1.10;;;30.80;99.90;;;;;;5025253;28;20469;-77
2022/06/03 14:30:35;;;;;;;2.87;1.40;;;30.90;99.90;;;;;;5025056;28;20453;-80
2022/06/03 14:33:03;;;;;;;2.47;1.20;;;30.90;99.90;;;;;;5023060;28;20897;-78
2022/06/03 14:35:35;;;;;;;3.33;1.57;;;30.80;99.90;;;;;;5022858;28;20509;-78
2022/06/03 14:38:06;;;;;;;2.00;1.10;;;30.90;99.90;;;;;;5023989;28;20482;-79
2022/06/03 14:40:36;;;;;;;2.30;1.10;;;30.80;99.90;;;;;;5022643;28;20449;-79
2022/06/03 14:43:04;;;;;;;3.00;1.20;;;30.70;99.90;;;;;;5018467;28;20761;-77
2022/06/03 14:45:35;;;;;;;2.20;1.17;;;30.60;99.90;;;;;;5014940;28;20456;-78
2022/06/03 14:48:08;;;;;;;2.10;1.10;;;30.50;99.90;;;;;;5015187;28;20882;-79